createdAt,value
2018-02-10T00:02:04.417Z,87.40
2018-02-10T00:04:33.516Z,95.30
2018-02-10T00:07:02.272Z,94.37
2018-02-10T00:09:30.589Z,91.00
2018-02-10T00:11:58.944Z,84.27
2018-02-10T00:14:28.027Z,73.00
2018-02-10T00:16:56.343Z,77.97
2018-02-10T00:19:24.684Z,81.18
2018-02-10T00:21:52.991Z,84.80
2018-02-10T00:24:21.299Z,86.35
2018-02-10T00:26:49.668Z,77.47
2018-02-10T00:29:17.995Z,77.87
2018-02-10T00:31:46.314Z,79.47
2018-02-10T00:34:14.734Z,93.78
2018-02-10T00:36:43.052Z,74.97
2018-02-10T00:39:11.372Z,82.97
2018-02-10T00:41:39.780Z,76.37
2018-02-10T00:44:08.112Z,73.27
2018-02-10T00:46:36.443Z,82.65
2018-02-10T00:49:05.437Z,93.87
2018-02-10T00:51:33.747Z,85.90
2018-02-10T00:54:02.063Z,85.17
2018-02-10T00:56:30.394Z,81.90
2018-02-10T00:58:58.716Z,73.63
2018-02-10T01:01:27.028Z,93.03
2018-02-10T01:03:56.419Z,81.97
2018-02-10T01:06:24.746Z,80.23
2018-02-10T01:08:53.076Z,85.97
2018-02-10T01:11:21.453Z,69.33
2018-02-10T01:13:49.780Z,82.20
2018-02-10T01:16:18.115Z,79.43
2018-02-10T01:18:46.479Z,82.93
2018-02-10T01:21:14.791Z,80.90
2018-02-10T01:23:43.864Z,75.63
2018-02-10T01:26:12.206Z,71.77
2018-02-10T01:28:40.536Z,85.40
2018-02-10T01:31:08.913Z,90.78
2018-02-10T01:33:38.052Z,88.18
2018-02-10T01:36:06.364Z,79.07
2018-02-10T01:38:34.765Z,87.97
2018-02-10T01:41:03.852Z,75.15
2018-02-10T01:43:32.598Z,77.80
2018-02-10T01:46:01.026Z,82.73
2018-02-10T01:48:29.435Z,75.00
2018-02-10T01:50:57.769Z,72.85
2018-02-10T01:53:26.198Z,77.23
2018-02-10T01:55:54.524Z,83.17
2018-02-10T01:58:22.867Z,78.50
2018-02-10T02:00:51.245Z,78.00
2018-02-10T02:03:19.828Z,92.05
2018-02-10T02:05:48.153Z,88.55
2018-02-10T02:08:16.601Z,81.07
2018-02-10T02:10:44.924Z,86.87
2018-02-10T02:13:13.244Z,74.30
2018-02-10T02:15:41.619Z,71.53
2018-02-10T02:18:09.945Z,71.00
2018-02-10T02:20:38.272Z,87.68
2018-02-10T02:23:07.507Z,94.07
2018-02-10T02:25:35.824Z,87.63
2018-02-10T02:28:04.145Z,90.80
2018-02-10T02:30:33.312Z,86.15
2018-02-10T02:33:01.629Z,77.68
2018-02-10T02:35:29.947Z,77.15
2018-02-10T02:37:58.544Z,103.83
2018-02-10T02:40:26.880Z,90.03
2018-02-10T02:42:55.191Z,75.93
2018-02-10T02:45:23.568Z,74.40
2018-02-10T02:47:51.948Z,87.20
2018-02-10T02:50:20.260Z,74.10
2018-02-10T02:52:48.609Z,75.57
2018-02-10T02:55:16.922Z,89.70
2018-02-10T02:57:45.235Z,78.33
2018-02-10T03:00:13.600Z,78.87
2018-02-10T03:02:42.540Z,83.87
2018-02-10T03:05:10.851Z,78.20
2018-02-10T03:07:39.528Z,82.28
2018-02-10T03:10:07.990Z,86.28
2018-02-10T03:12:36.411Z,85.63
2018-02-10T03:15:04.890Z,84.75
2018-02-10T03:17:33.359Z,76.35
2018-02-10T03:20:01.677Z,70.85
2018-02-10T03:22:32.088Z,82.97
2018-02-10T03:25:00.408Z,79.45
2018-02-10T03:27:28.719Z,75.00
2018-02-10T03:29:57.173Z,74.03
2018-02-10T03:32:26.124Z,86.63
2018-02-10T03:34:55.208Z,81.18
2018-02-10T03:37:23.759Z,77.03
2018-02-10T03:39:52.068Z,76.15
2018-02-10T03:42:20.402Z,84.50
2018-02-10T03:44:48.736Z,71.28
2018-02-10T03:47:17.817Z,68.87
2018-02-10T03:49:46.162Z,68.53
2018-02-10T03:52:14.582Z,89.80
2018-02-10T03:54:42.923Z,85.43
2018-02-10T03:57:11.327Z,78.22
2018-02-10T03:59:39.640Z,86.83
2018-02-10T04:02:08.019Z,98.25
2018-02-10T04:04:36.329Z,85.62
2018-02-10T04:07:04.647Z,76.00
2018-02-10T04:09:34.071Z,81.87
2018-02-10T04:12:02.396Z,104.15
2018-02-10T04:14:30.711Z,92.53
2018-02-10T04:16:59.836Z,79.25
2018-02-10T04:19:28.160Z,78.97
2018-02-10T04:21:56.483Z,80.53
2018-02-10T04:24:24.848Z,74.62
2018-02-10T04:26:53.947Z,81.70
2018-02-10T04:29:23.032Z,81.45
2018-02-10T04:31:52.181Z,99.05
2018-02-10T04:34:20.500Z,71.27
2018-02-10T04:36:48.819Z,74.40
2018-02-10T04:39:17.150Z,74.87
2018-02-10T04:41:45.459Z,73.33
2018-02-10T04:44:14.584Z,103.25
2018-02-10T04:46:42.896Z,90.85
2018-02-10T04:49:11.707Z,74.90
2018-02-10T04:51:40.848Z,82.00
2018-02-10T04:54:09.168Z,85.97
2018-02-10T04:56:37.479Z,97.60
2018-02-10T04:59:05.840Z,91.10
2018-02-10T05:01:34.915Z,85.95
2018-02-10T05:04:03.232Z,80.30
2018-02-10T05:06:31.607Z,75.93
2018-02-10T05:08:59.929Z,81.80
2018-02-10T05:11:28.243Z,78.78
2018-02-10T05:13:57.347Z,86.80
2018-02-10T05:16:26.423Z,85.68
2018-02-10T05:18:54.756Z,72.27
2018-02-10T05:21:23.076Z,78.07
2018-02-10T05:23:51.464Z,86.10
2018-02-10T05:26:20.544Z,78.97
2018-02-10T05:28:48.876Z,85.97
2018-02-10T05:31:17.269Z,73.78
2018-02-10T05:33:45.604Z,96.67
2018-02-10T05:36:13.915Z,81.63
2018-02-10T05:38:42.238Z,83.32
2018-02-10T05:41:10.585Z,68.55
2018-02-10T05:43:38.907Z,80.55
2018-02-10T05:46:08.037Z,74.05
2018-02-10T05:48:36.348Z,81.28
2018-02-10T05:51:04.759Z,69.30
2018-02-10T05:53:33.844Z,74.93
2018-02-10T05:56:02.334Z,90.03
2018-02-10T05:58:30.711Z,85.25
2018-02-10T06:00:59.023Z,83.70
2018-02-10T06:03:27.415Z,80.93
2018-02-10T06:05:55.767Z,76.13
2018-02-10T06:08:24.110Z,101.63
2018-02-10T06:10:52.417Z,73.17
2018-02-10T06:13:20.790Z,83.20
2018-02-10T06:15:49.507Z,83.72
2018-02-10T06:18:17.869Z,136.57
2018-02-10T06:20:46.207Z,89.22
2018-02-10T06:23:14.531Z,89.10
2018-02-10T06:25:42.880Z,70.07
2018-02-10T06:28:11.304Z,73.03
2018-02-10T06:30:39.771Z,92.47
2018-02-10T06:33:08.116Z,85.75
2018-02-10T06:35:37.248Z,88.80
2018-02-10T06:38:05.558Z,70.50
2018-02-10T06:40:34.418Z,68.78
2018-02-10T06:43:02.782Z,78.40
2018-02-10T06:45:31.097Z,81.85
2018-02-10T06:47:59.407Z,68.80
2018-02-10T06:50:27.740Z,64.50
2018-02-10T06:52:56.060Z,81.35
2018-02-10T06:55:24.379Z,62.78
2018-02-10T06:57:52.751Z,82.90
2018-02-10T07:00:21.063Z,77.05
2018-02-10T07:02:49.728Z,67.12
2018-02-10T07:05:18.085Z,75.95
2018-02-10T07:07:46.404Z,85.93
2018-02-10T07:10:14.734Z,72.80
2018-02-10T07:12:43.871Z,71.18
2018-02-10T07:15:12.784Z,80.55
2018-02-10T07:17:41.099Z,76.87
2018-02-10T07:20:09.460Z,61.57
2018-02-10T07:22:38.544Z,73.22
2018-02-10T07:25:06.858Z,70.93
2018-02-10T07:27:35.194Z,77.87
2018-02-10T07:30:03.514Z,66.87
2018-02-10T07:32:31.852Z,71.50
2018-02-10T07:35:00.225Z,71.97
2018-02-10T07:37:29.165Z,77.23
2018-02-10T07:39:57.976Z,73.50
2018-02-10T07:42:26.312Z,61.83
2018-02-10T07:44:55.056Z,69.15
2018-02-10T07:47:23.572Z,70.47
2018-02-10T07:49:51.912Z,67.00
2018-02-10T07:52:20.295Z,70.97
2018-02-10T07:54:48.623Z,70.53
2018-02-10T07:57:17.692Z,81.60
2018-02-10T07:59:46.056Z,68.67
2018-02-10T08:02:14.394Z,71.70
2018-02-10T08:04:42.780Z,81.45
2018-02-10T08:07:11.452Z,64.60
2018-02-10T08:09:39.769Z,72.77
2018-02-10T08:12:08.077Z,69.60
2018-02-10T08:14:36.436Z,71.03
2018-02-10T08:17:04.745Z,76.43
2018-02-10T08:19:33.816Z,80.07
2018-02-10T08:22:02.179Z,78.63
2018-02-10T08:24:31.052Z,72.77
2018-02-10T08:26:59.368Z,87.90
2018-02-10T08:29:28.016Z,65.80
2018-02-10T08:31:56.332Z,65.28
2018-02-10T08:34:24.644Z,67.10
2018-02-10T08:36:53.047Z,64.87
2018-02-10T08:39:21.352Z,63.50
2018-02-10T08:41:49.672Z,66.60
2018-02-10T08:44:18.107Z,57.90
2018-02-10T08:46:46.408Z,57.93
2018-02-10T08:49:14.715Z,61.87
2018-02-10T08:51:43.139Z,68.40
2018-02-10T08:54:11.446Z,66.63
2018-02-10T08:56:40.563Z,72.57
2018-02-10T08:59:09.457Z,66.03
2018-02-10T09:01:38.390Z,72.85
2018-02-10T09:04:06.808Z,69.80
2018-02-10T09:06:35.215Z,75.10
2018-02-10T09:09:03.600Z,62.10
2018-02-10T09:11:31.955Z,61.78
2018-02-10T09:14:01.033Z,60.53
2018-02-10T09:16:29.953Z,58.77
2018-02-10T09:18:58.335Z,61.20
2018-02-10T09:21:26.671Z,59.00
2018-02-10T09:23:54.967Z,70.87
2018-02-10T09:26:24.058Z,68.37
2018-02-10T09:28:52.355Z,62.97
2018-02-10T09:31:20.727Z,62.07
2018-02-10T09:33:49.036Z,59.53
2018-02-10T09:36:17.355Z,64.73
2018-02-10T09:38:46.409Z,56.57
2018-02-10T09:41:14.736Z,64.80
2018-02-10T09:43:43.039Z,71.63
2018-02-10T09:46:11.403Z,67.53
2018-02-10T09:48:39.724Z,64.60
2018-02-10T09:51:08.045Z,53.67
2018-02-10T09:53:42.451Z,58.63
2018-02-10T09:56:10.763Z,62.87
2018-02-10T09:58:39.839Z,58.63
2018-02-10T10:01:08.206Z,64.40
2018-02-10T10:03:36.515Z,63.40
2018-02-10T10:06:04.828Z,71.67
2018-02-10T10:08:33.200Z,71.37
2018-02-10T10:11:01.615Z,57.50
2018-02-10T10:13:29.934Z,53.67
2018-02-10T10:15:59.059Z,46.70
2018-02-10T10:18:27.379Z,71.73
2018-02-10T10:20:55.686Z,62.23
2018-02-10T10:23:24.042Z,56.93
2018-02-10T10:25:52.359Z,63.23
2018-02-10T10:28:20.665Z,67.67
2018-02-10T10:30:49.034Z,56.10
2018-02-10T10:33:17.352Z,69.87
2018-02-10T10:35:45.671Z,57.50
2018-02-10T10:38:14.011Z,54.37
2018-02-10T10:40:42.319Z,52.90
2018-02-10T10:43:10.624Z,63.73
2018-02-10T10:45:38.980Z,58.87
2018-02-10T10:48:07.316Z,53.50
2018-02-10T10:50:35.615Z,60.10
2018-02-10T10:53:03.960Z,55.43
2018-02-10T10:55:32.263Z,67.40
2018-02-10T10:58:01.340Z,57.67
2018-02-10T11:00:30.013Z,50.20
2018-02-10T11:02:58.324Z,64.43
2018-02-10T11:05:27.679Z,60.67
2018-02-10T11:07:56.040Z,58.97
2018-02-10T11:10:24.351Z,63.50
2018-02-10T11:12:52.660Z,64.83
2018-02-10T11:15:21.784Z,58.10
2018-02-10T11:17:50.102Z,61.70
2018-02-10T11:20:18.415Z,57.70
2018-02-10T11:22:46.770Z,65.07
2018-02-10T11:25:15.081Z,58.03
2018-02-10T11:27:43.389Z,59.33
2018-02-10T11:30:11.732Z,64.73
2018-02-10T11:32:40.048Z,56.63
2018-02-10T11:35:08.355Z,62.57
2018-02-10T11:37:36.713Z,60.37
2018-02-10T11:40:05.028Z,57.77
2018-02-10T11:42:33.340Z,64.53
2018-02-10T11:45:01.712Z,57.97
2018-02-10T11:47:30.029Z,59.83
2018-02-10T11:49:58.344Z,48.50
2018-02-10T11:52:26.726Z,51.60
2018-02-10T11:54:55.037Z,50.33
2018-02-10T11:57:23.359Z,48.27
2018-02-10T11:59:51.705Z,45.90
2018-02-10T12:02:20.004Z,48.20
2018-02-10T12:04:48.317Z,38.53
2018-02-10T12:07:16.682Z,49.40
2018-02-10T12:09:45.004Z,44.60
2018-02-10T12:12:13.315Z,43.27
2018-02-10T12:14:41.657Z,41.50
2018-02-10T12:17:09.972Z,40.37
2018-02-10T12:19:38.296Z,41.13
2018-02-10T12:22:06.688Z,41.93
2018-02-10T12:24:34.992Z,36.63
2018-02-10T12:27:03.316Z,41.50
2018-02-10T12:29:31.679Z,40.83
2018-02-10T12:31:59.989Z,42.10
2018-02-10T12:34:28.312Z,42.70
2018-02-10T12:36:56.663Z,46.83
2018-02-10T12:39:24.972Z,47.60
2018-02-10T12:41:54.052Z,52.50
2018-02-10T12:44:22.420Z,52.50
2018-02-10T12:46:50.727Z,47.10
2018-02-10T12:49:24.595Z,63.87
2018-02-10T12:51:52.899Z,46.57
2018-02-10T12:54:21.204Z,58.63
2018-02-10T12:56:50.324Z,55.10
2018-02-10T12:59:18.635Z,60.63
2018-02-10T13:01:46.960Z,47.27
2018-02-10T13:04:15.312Z,57.90
2018-02-10T13:06:43.640Z,49.37
2018-02-10T13:09:11.944Z,52.93
2018-02-10T13:11:40.591Z,54.77
2018-02-10T13:14:08.908Z,56.87
2018-02-10T13:16:37.211Z,51.00
2018-02-10T13:19:05.565Z,51.70
2018-02-10T13:21:33.877Z,56.97
2018-02-10T13:24:02.967Z,50.17
2018-02-10T13:26:32.092Z,61.00
2018-02-10T13:29:01.160Z,46.33
2018-02-10T13:31:30.252Z,56.73
2018-02-10T13:33:58.701Z,45.93
2018-02-10T13:36:27.792Z,44.77
2018-02-10T13:38:56.150Z,46.70
2018-02-10T13:41:24.484Z,48.07
2018-02-10T13:43:52.791Z,46.90
2018-02-10T13:46:21.112Z,35.67
2018-02-10T13:48:49.475Z,38.50
2018-02-10T13:51:17.781Z,40.03
2018-02-10T13:53:46.291Z,49.20
2018-02-10T13:56:14.636Z,42.77
2018-02-10T13:58:42.952Z,33.77
2018-02-10T14:01:11.264Z,41.60
2018-02-10T14:03:40.391Z,32.90
2018-02-10T14:06:08.703Z,33.60
2018-02-10T14:08:37.955Z,50.50
2018-02-10T14:11:06.320Z,39.70
2018-02-10T14:13:34.637Z,28.50
2018-02-10T14:16:03.007Z,38.27
2018-02-10T14:18:31.357Z,34.37
2018-02-10T14:20:59.673Z,37.57
2018-02-10T14:23:27.987Z,32.57
2018-02-10T14:25:56.332Z,34.23
2018-02-10T14:28:24.650Z,32.33
2018-02-10T14:30:52.956Z,33.57
2018-02-10T14:33:21.308Z,34.83
2018-02-10T14:35:49.624Z,29.83
2018-02-10T14:38:17.942Z,36.07
2018-02-10T14:40:46.299Z,36.90
2018-02-10T14:43:15.376Z,28.70
2018-02-10T14:45:44.472Z,26.13
2018-02-10T14:48:12.815Z,28.03
2018-02-10T14:50:41.132Z,28.40
2018-02-10T14:53:09.452Z,30.77
2018-02-10T14:55:37.849Z,32.70
2018-02-10T14:58:06.160Z,27.17
2018-02-10T15:00:34.471Z,29.40
2018-02-10T15:03:02.808Z,30.20
2018-02-10T15:05:31.116Z,26.93
2018-02-10T15:08:00.191Z,28.77
2018-02-10T15:10:28.614Z,31.57
2018-02-10T15:12:56.924Z,28.67
2018-02-10T15:15:25.491Z,32.10
2018-02-10T15:17:53.848Z,34.10
2018-02-10T15:20:22.152Z,32.87
2018-02-10T15:22:50.463Z,32.93
2018-02-10T15:25:18.820Z,37.92
2018-02-10T15:27:47.123Z,32.20
2018-02-10T15:30:33.175Z,45.03
2018-02-10T15:33:18.970Z,35.93
2018-02-10T15:35:47.333Z,38.37
2018-02-10T15:38:15.652Z,32.57
2018-02-10T15:40:43.972Z,37.10
2018-02-10T15:43:12.355Z,44.25
2018-02-10T15:45:40.668Z,34.03
2018-02-10T15:48:08.996Z,38.43
2018-02-10T15:50:37.352Z,45.13
2018-02-10T15:53:06.436Z,38.33
2018-02-10T15:55:34.752Z,48.10
2018-02-10T15:58:03.100Z,42.08
2018-02-10T16:00:31.415Z,33.28
2018-02-10T16:02:59.790Z,38.90
2018-02-10T16:05:28.156Z,34.65
2018-02-10T16:07:56.535Z,35.80
2018-02-10T16:10:24.844Z,42.27
2018-02-10T16:12:53.555Z,48.77
2018-02-10T16:15:21.871Z,34.20
2018-02-10T16:17:50.191Z,41.83
2018-02-10T16:20:18.544Z,36.67
2018-02-10T16:22:46.862Z,37.67
2018-02-10T16:25:15.176Z,36.30
2018-02-10T16:27:43.581Z,39.90
2018-02-10T16:30:11.903Z,37.63
2018-02-10T16:32:40.219Z,35.17
2018-02-10T16:35:08.571Z,35.80
2018-02-10T16:37:36.887Z,37.97
2018-02-10T16:40:05.239Z,38.20
2018-02-10T16:42:34.323Z,31.60
2018-02-10T16:45:02.637Z,44.77
2018-02-10T16:47:30.955Z,38.70
2018-02-10T16:49:59.325Z,35.53
2018-02-10T16:52:27.627Z,33.10
2018-02-10T16:54:55.940Z,36.40
2018-02-10T16:57:24.307Z,31.87
2018-02-10T16:59:53.408Z,33.13
2018-02-10T17:02:22.499Z,33.40
2018-02-10T17:04:51.603Z,32.90
2018-02-10T17:07:20.692Z,34.17
2018-02-10T17:09:49.775Z,38.37
2018-02-10T17:12:18.131Z,32.00
2018-02-10T17:14:46.460Z,35.75
2018-02-10T17:17:15.270Z,35.90
2018-02-10T17:19:43.700Z,34.25
2018-02-10T17:22:12.780Z,42.97
2018-02-10T17:24:41.128Z,40.07
2018-02-10T17:27:09.490Z,41.63
2018-02-10T17:29:37.811Z,32.93
2018-02-10T17:32:06.111Z,28.03
2018-02-10T17:34:34.464Z,36.17
2018-02-10T17:37:02.796Z,36.92
2018-02-10T17:39:31.104Z,36.20
2018-02-10T17:41:59.476Z,37.35
2018-02-10T17:44:27.793Z,34.47
2018-02-10T17:46:56.134Z,37.63
2018-02-10T17:49:24.467Z,35.50
2018-02-10T17:51:52.779Z,33.13
2018-02-10T17:54:21.089Z,38.97
2018-02-10T17:56:49.557Z,33.50
2018-02-10T17:59:17.868Z,34.00
2018-02-10T18:01:46.190Z,49.97
2018-02-10T18:04:14.895Z,35.73
2018-02-10T18:06:43.205Z,34.13
2018-02-10T18:09:11.532Z,44.40
2018-02-10T18:11:39.908Z,38.77
2018-02-10T18:14:08.225Z,35.80
2018-02-10T18:16:36.553Z,33.45
2018-02-10T18:19:04.925Z,36.00
2018-02-10T18:21:33.235Z,39.03
2018-02-10T18:24:01.543Z,32.63
2018-02-10T18:26:30.040Z,35.03
2018-02-10T18:28:58.359Z,40.60
2018-02-10T18:31:26.683Z,38.43
2018-02-10T18:33:55.039Z,37.50
2018-02-10T18:36:23.352Z,46.77
2018-02-10T18:38:51.664Z,50.30
2018-02-10T18:41:20.064Z,43.47
2018-02-10T18:43:48.376Z,39.23
2018-02-10T18:46:16.689Z,40.87
2018-02-10T18:48:45.088Z,37.50
2018-02-10T18:51:13.403Z,46.57
2018-02-10T18:53:41.719Z,45.17
2018-02-10T18:56:10.082Z,49.43
2018-02-10T18:58:38.388Z,42.63
2018-02-10T19:01:06.718Z,39.63
2018-02-10T19:03:35.082Z,38.27
2018-02-10T19:06:03.407Z,40.90
2018-02-10T19:08:31.749Z,48.25
2018-02-10T19:11:00.932Z,41.63
2018-02-10T19:13:29.251Z,36.67
2018-02-10T19:15:57.565Z,40.37
2018-02-10T19:18:25.947Z,52.27
2018-02-10T19:20:54.276Z,41.93
2018-02-10T19:23:23.059Z,48.50
2018-02-10T19:25:51.511Z,48.05
2018-02-10T19:28:19.816Z,42.87
2018-02-10T19:30:48.898Z,42.45
2018-02-10T19:33:17.768Z,43.03
2018-02-10T19:35:46.076Z,42.73
2018-02-10T19:38:14.397Z,42.30
2018-02-10T19:40:42.848Z,39.57
2018-02-10T19:43:11.920Z,52.73
2018-02-10T19:45:40.231Z,50.23
2018-02-10T19:48:09.353Z,43.53
2018-02-10T19:50:37.680Z,48.10
2018-02-10T19:53:05.998Z,44.63
2018-02-10T19:55:34.375Z,44.83
2018-02-10T19:58:02.692Z,38.17
2018-02-10T20:00:31.003Z,41.47
2018-02-10T20:02:59.395Z,38.90
2018-02-10T20:05:27.719Z,44.13
2018-02-10T20:07:56.033Z,37.50
2018-02-10T20:10:24.407Z,37.03
2018-02-10T20:12:52.729Z,35.55
2018-02-10T20:15:21.048Z,36.60
2018-02-10T20:17:49.395Z,37.93
2018-02-10T20:20:17.712Z,35.22
2018-02-10T20:22:46.796Z,39.03
2018-02-10T20:25:15.184Z,39.00
2018-02-10T20:27:43.503Z,43.17
2018-02-10T20:30:11.826Z,35.90
2018-02-10T20:32:40.199Z,40.47
2018-02-10T20:35:08.515Z,49.30
2018-02-10T20:37:36.834Z,45.13
2018-02-10T20:40:05.299Z,39.47
2018-02-10T20:42:33.596Z,45.55
2018-02-10T20:45:01.895Z,42.57
2018-02-10T20:47:30.621Z,56.80
2018-02-10T20:49:59.696Z,42.23
2018-02-10T20:52:27.999Z,46.93
2018-02-10T20:54:56.356Z,47.97
2018-02-10T20:57:24.696Z,42.90
2018-02-10T20:59:53.015Z,45.67
2018-02-10T21:02:21.451Z,47.80
2018-02-10T21:04:49.768Z,42.40
2018-02-10T21:07:18.079Z,42.70
2018-02-10T21:09:46.431Z,46.45
2018-02-10T21:12:14.748Z,44.10
2018-02-10T21:14:43.063Z,40.92
2018-02-10T21:17:11.420Z,46.63
2018-02-10T21:19:39.793Z,41.40
2018-02-10T21:22:08.140Z,40.27
2018-02-10T21:24:36.495Z,46.97
2018-02-10T21:27:04.820Z,54.73
2018-02-10T21:29:33.131Z,44.60
2018-02-10T21:32:01.503Z,41.17
2018-02-10T21:34:29.819Z,45.10
2018-02-10T21:36:58.124Z,43.47
2018-02-10T21:39:26.488Z,49.20
2018-02-10T21:41:54.799Z,34.08
2018-02-10T21:44:23.109Z,37.27
2018-02-10T21:46:51.476Z,40.77
2018-02-10T21:49:19.784Z,36.03
2018-02-10T21:51:48.096Z,47.67
2018-02-10T21:54:16.443Z,41.23
2018-02-10T21:56:44.770Z,47.87
2018-02-10T21:59:13.082Z,51.23
2018-02-10T22:01:42.228Z,45.20
2018-02-10T22:04:10.568Z,47.73
2018-02-10T22:06:38.884Z,39.88
2018-02-10T22:09:07.223Z,43.23
2018-02-10T22:11:35.531Z,37.20
2018-02-10T22:14:03.899Z,33.83
2018-02-10T22:16:32.291Z,35.78
2018-02-10T22:19:00.631Z,34.93
2018-02-10T22:21:28.944Z,36.50
2018-02-10T22:23:57.291Z,35.55
2018-02-10T22:26:25.604Z,35.33
2018-02-10T22:28:53.904Z,39.70
2018-02-10T22:31:22.268Z,34.47
2018-02-10T22:33:50.580Z,27.65
2018-02-10T22:36:19.657Z,25.48
2018-02-10T22:38:48.026Z,26.03
2018-02-10T22:41:16.335Z,23.60
2018-02-10T22:43:44.684Z,20.33
2018-02-10T22:46:13.043Z,19.47
2018-02-10T22:48:41.351Z,19.47
2018-02-10T22:51:09.663Z,20.23
2018-02-10T22:53:38.012Z,21.17
2018-02-10T22:56:06.334Z,22.13
2018-02-10T22:58:34.680Z,25.20
2018-02-10T23:01:08.888Z,31.10
2018-02-10T23:03:37.196Z,27.37
2018-02-10T23:06:05.526Z,25.83
2018-02-10T23:08:33.897Z,35.10
2018-02-10T23:11:02.203Z,36.63
2018-02-10T23:13:30.527Z,26.67
2018-02-10T23:15:58.868Z,28.80
2018-02-10T23:18:27.951Z,33.88
2018-02-10T23:20:57.023Z,25.63
2018-02-10T23:23:25.404Z,28.87
2018-02-10T23:25:53.769Z,25.27
2018-02-10T23:28:22.112Z,24.27
2018-02-10T23:30:50.489Z,20.27
2018-02-10T23:33:18.797Z,22.87
2018-02-10T23:35:47.116Z,20.87
2018-02-10T23:38:16.168Z,19.80
2018-02-10T23:40:44.504Z,20.30
2018-02-10T23:43:13.587Z,23.40
2018-02-10T23:45:41.991Z,17.90
2018-02-10T23:48:10.424Z,21.23
2018-02-10T23:50:38.791Z,22.17
2018-02-10T23:53:07.108Z,19.08
2018-02-10T23:55:36.188Z,21.20
2018-02-10T23:58:04.544Z,19.83
